AirNav   Air Wisconsin pilot careers
 
 1600 users online  

O45 Hooker Municipal Airport
Hooker, Oklahoma, USA

GOING TO HOOKER?


FAA INFORMATION EFFECTIVE 29 MARCH 2018

Location

FAA Identifier: O45
Lat/Long: 36-51-25.4990N / 101-13-37.5250W
36-51.424983N / 101-13.625417W
36.8570831 / -101.2270903
(estimated)
Elevation: 2998.4 ft. / 913.9 m (surveyed)
Variation: 09E (1985)
From city: 1 mile W of HOOKER, OK
Time zone: UTC -5 (UTC -6 during Standard Time)
Zip code: 73945

Airport Operations

Airport use: Open to the public
Activation date: 03/1977
Control tower: no
ARTCC: KANSAS CITY CENTER
FSS: MC ALESTER FLIGHT SERVICE STATION
NOTAMs facility: MLC (NOTAM-D service available)
Attendance: UNATNDD
Pattern altitude: 4000.4 ft. MSL
Wind indicator: yes
Segmented circle: yes
Lights: ACTVT MIRL RY 17/35 - CTAF.
Beacon: white-green (lighted land airport)
Operates sunset to sunrise.

Airport Communications

CTAF: 122.9
WX ASOS at GUY (17 nm SW): 119.925 (580-468-1476)
WX AWOS-3PT at LBL (17 nm NE): 118.375 (620-624-1221)
WX AWOS-3PT at HQG (20 nm N): 118.600 (620-544-4000)

Nearby radio navigation aids

VOR radial/distance  VOR name  Freq  Var
LBLr217/16.6LIBERAL VORTAC112.3011E

 
NDB name  Hdg/Dist  Freq  Var  ID
GUYMON047/16.227509EGUY --. ..- -.--
HUGOTON150/19.736509EHQG .... --.- --.
ELKHART098/32.737707EEHA . .... .-
PERRYTON312/35.326607EPYX .--. -.-- -..-

Airport Services

Fuel available: 100LL
FUEL AVBL 24 HR SELF-SERVE.
Parking: tiedowns
Airframe service: NONE
Powerplant service: NONE
Bottled oxygen: NONE
Bulk oxygen: NONE

Runway Information

Runway 17/35

Dimensions: 3311 x 60 ft. / 1009 x 18 m
Surface: asphalt, in good condition
Runway edge lights: medium intensity
RUNWAY 17  RUNWAY 35
Latitude: 36-51.697833N36-51.152117N
Longitude: 101-13.625800W101-13.625033W
Elevation: 2998.4 ft.2991.8 ft.
Traffic pattern: rightleft
Runway heading: 171 magnetic, 180 true351 magnetic, 360 true
Markings: basic, in good conditionbasic, in good condition
Visual slope indicator: 2-light PAPI on left (3.00 degrees glide path)2-light PAPI on left (3.50 degrees glide path)
Touchdown point: yes, no lightsyes, no lights
Obstructions: none57 ft. pline, marked, 1338 ft. from runway, 19:1 slope to clear

Airport Ownership and Management from official FAA records

Ownership: Publicly-owned
Owner: CITY OF HOOKER
111 S. BROADWAY, BOX 67
HOOKER, OK 73945
Phone 580-652-2885
Manager: DAVID VAIL
107 S. MAYER
HOOKER, OK 73945
Phone 580-652-2885
MAYOR.

Airport Operational Statistics

Aircraft based on the field: 11
Single engine airplanes: 11
    
Aircraft operations: avg 38/week *
70% local general aviation
30% transient general aviation
* for 12-month period ending 15 November 2017

Instrument Procedures

There are no published instrument procedures at O45.

Some nearby airports with instrument procedures:

KGUY - Guymon Municipal Airport (17 nm SW)
KLBL - Liberal Mid-America Regional Airport (17 nm NE)
KHQG - Hugoton Municipal Airport (20 nm N)
KEHA - Elkhart-Morton County Airport (32 nm W)
KPYX - Perryton Ochiltree County Airport (35 nm SE)
 
Loc | Ops | Rwys | IFR | FBO | Links
Com | Nav | Svcs | Stats | Notes

AirNav Hotels Sweepstakes
 
Area around O45 (Hooker Municipal Airport)
 
Road maps at: MapQuest Bing Google
 
Aerial photo
WARNING: Photo may not be current or correct
Aerial photo of O45 (Hooker Municipal Airport)
Photo by Ron Lee

Do you have a better or more recent aerial photo of Hooker Municipal Airport that you would like to share? If so, please send us your photo.

 
Sectional chart

 
Airport distance calculator
Flying to Hooker Municipal Airport? Find the distance to fly.

From to O45

Sunrise and sunset
Times for 25-Apr-2018
 Local
(UTC-5)
 Zulu
(UTC)
Morning civil twilight06:3111:31
Sunrise06:5911:59
Sunset20:2701:27
Evening civil twilight20:5401:54

Current date and time
Zulu (UTC)  25-Apr-2018 15:09:39
Local (UTC-5)  25-Apr-2018 10:09:39
 
METAR
KLBL 
16nm NE 
251456Z AUTO 34016G22KT 10SM BKN015 05/02 A3033 RMK AO2 SLP278 T00500022 58001
KGUY 
17nm SW 
251453Z AUTO 35017G24KT 10SM CLR 07/01 A3034 RMK AO2 PK WND 35026/1400 SLP269 T00670006 50001
KHQG 
20nm N 
251455Z AUTO 35019G24KT 10SM SCT020 06/00 A3035 RMK AO2 T00610000
KPYX 
32nm SE 
251455Z AUTO 35013G20KT 10SM SCT016 06/03 A3032 RMK AO2 60006 T00570028
TAF
KLBL 
16nm NE 
251120Z 2512/2612 33008KT P6SM SCT020 TEMPO 2512/2514 BKN025 FM251500 34015KT P6SM SKC FM260000 VRB05KT P6SM SKC
KGUY 
17nm SW 
251126Z 2512/2612 34014KT P6SM SCT030 OVC080 FM251800 35016KT P6SM SKC FM260100 VRB06KT P6SM SKC FM260600 22007KT P6SM SKC
NOTAMs
Click for the latest NOTAMs
NOTAMs are issued by the DoD/FAA and will open in a separate window not controlled by AirNav.

 

 
 

FBO, Fuel Providers, and Aircraft Ground Support

  
 Business Name 
 
 Contact 
 
 Services / Description 
 
Fuel Prices
 
Comments
  
City of Hooker 580-652-2885
[email]
Aviation fuel, Pilots lounge / snooze room, Public telephone, Restrooms, Showers, Restaurant

More info about City of Hooker
Avfuel
100LL
SS $4.26 
 Updated 19-Apr-2018
 
   1 read write
SS=Self service
Update Fuel Prices
 

Would you like to see your business listed on this page?

 If your business provides an interesting product or service to pilots, flight crews, aircraft, or users of the Hooker Municipal Airport, you should consider listing it here.  To start the listing process, click on the button below
 
Add a business
 

Other Pages about Hooker Municipal Airport

Update a link
 
Copyright © AirNav, LLC. All rights reserved. Privacy Policy  Contact